CheckWX is a tool to help pilots better visualize weather data.  It is not intended as a substitute for an official pre-flight weather briefing.

22:23:04 UTC

KPTW METAR
Heritage Field Airport
Pottstown, Pennsylvania, USA
Current

29 mins ago

KPTW 102154Z AUTO 33008KT 9SM FEW026 SCT048 OVC090 23/22 A2967 RMK AO2 RAB2055E38 SLP042 P0001 T02280217
Observed
Jul-10 @ 21:54 UTC
Wind
  • 330° at 8 KTS
Visibility
9 SM
Flight Rules
VFR
Cloud Levels
  • Few at 2,600' AGL
  • Scattered at 4,800' AGL
  • Overcast at 9,000' AGL
Temperature
23°C / 73°F
Dewpoint
22°C / 72°F
Humidity
94%
Altimeter
29.67" Hg
Pressure
1004.72 hPa
Current Rain
0.01"
Previous

59 mins ago

KPTW 102124Z AUTO 34009KT 8SM -RA SCT026 BKN044 OVC095 22/22 A2969 RMK AO2 RAB2055 P0001 T02220217
Observed
Jul-10 @ 21:24 UTC
Wind
  • 340° at 9 KTS
Visibility
8 SM
Flight Rules
VFR
Conditions
Light Rain
Cloud Levels
  • Scattered at 2,600' AGL
  • Broken at 4,400' AGL
  • Overcast at 9,500' AGL
Temperature
22°C / 72°F
Dewpoint
22°C / 72°F
Humidity
100%
Altimeter
29.69" Hg
Pressure
1005.42 hPa
Current Rain
0.01"
Previous

1 hour ago

KPTW 102054Z AUTO 35010KT 8SM SCT014 BKN025 OVC095 22/22 A2970 RMK AO2 RAE52 SLP053 P0036 60150 T02220217 56040
Observed
Jul-10 @ 20:54 UTC
Wind
  • 350° at 10 KTS
Visibility
8 SM
Flight Rules
MVFR
Cloud Levels
  • Scattered at 1,400' AGL
  • Broken at 2,500' AGL
  • Overcast at 9,500' AGL
Temperature
22°C / 72°F
Dewpoint
22°C / 72°F
Humidity
100%
Altimeter
29.7" Hg
Pressure
1005.72 hPa
Current Rain
0.36"